Time;durP1;ratioP1;P1;durP2;ratioP2;P2;SDS_P1;SDS_P2;PMS_P1;PMS_P2;Temp;Humidity;BMP_temperature;BMP_pressure;BME280_temperature;BME280_humidity;BME280_pressure;Samples;Min_cycle;Max_cycle;Signal;HPM_P1;HPM_P2
2021/06/11 00:00:42;;;;;;;12.87;11.77;;;22.70;73.40;;;;;;5031501;28;20761;-48
2021/06/11 00:03:10;;;;;;;11.20;10.30;;;22.70;73.10;;;;;;5032066;28;21215;-49
2021/06/11 00:05:37;;;;;;;13.20;12.30;;;22.60;72.80;;;;;;5032223;28;20978;-49
2021/06/11 00:08:04;;;;;;;11.53;10.63;;;22.60;72.50;;;;;;5031829;28;20946;-49
2021/06/11 00:10:31;;;;;;;12.10;10.87;;;22.60;72.30;;;;;;5032036;28;20631;-48
2021/06/11 00:12:58;;;;;;;11.63;10.70;;;22.60;72.90;;;;;;5031384;28;20666;-48
2021/06/11 00:15:25;;;;;;;11.47;10.50;;;22.60;72.70;;;;;;5031719;28;20712;-48
2021/06/11 00:17:51;;;;;;;13.63;12.43;;;22.60;72.20;;;;;;5011993;28;20628;-48
2021/06/11 00:20:20;;;;;;;12.90;11.80;;;22.60;72.10;;;;;;5011830;28;21224;-49
2021/06/11 00:22:46;;;;;;;13.60;12.33;;;22.60;72.70;;;;;;5011789;28;20658;-49
2021/06/11 00:25:15;;;;;;;12.30;11.40;;;22.50;73.00;;;;;;5011483;28;20791;-49
2021/06/11 00:27:42;;;;;;;12.07;10.97;;;22.50;73.40;;;;;;5011775;28;20644;-49
2021/06/11 00:30:09;;;;;;;13.80;12.40;;;22.50;74.10;;;;;;5020655;28;20630;-49
2021/06/11 00:32:36;;;;;;;13.30;12.10;;;22.40;74.60;;;;;;5031043;28;20659;-49
2021/06/11 00:35:03;;;;;;;13.37;12.37;;;22.30;75.60;;;;;;5031206;28;20712;-49
2021/06/11 00:37:31;;;;;;;14.10;13.00;;;22.20;76.40;;;;;;5031423;28;20647;-48
2021/06/11 00:39:58;;;;;;;13.37;12.17;;;22.20;77.20;;;;;;5031190;28;20627;-48
2021/06/11 00:42:25;;;;;;;14.67;13.57;;;22.10;77.50;;;;;;5031417;28;21250;-48
2021/06/11 00:44:52;;;;;;;12.07;11.00;;;22.00;78.20;;;;;;5030984;28;21215;-48
2021/06/11 00:47:19;;;;;;;13.23;12.27;;;21.90;79.00;;;;;;5030492;28;20947;-48
2021/06/11 00:49:48;;;;;;;12.53;11.53;;;21.90;79.50;;;;;;5031494;28;21089;-49
2021/06/11 00:52:14;;;;;;;14.00;12.90;;;21.90;79.90;;;;;;5031019;28;20658;-48
2021/06/11 00:54:42;;;;;;;12.13;11.23;;;21.90;80.40;;;;;;5030701;28;21093;-49
2021/06/11 00:57:09;;;;;;;13.33;12.33;;;21.90;80.30;;;;;;5030758;28;20661;-48
2021/06/11 00:59:36;;;;;;;13.20;12.20;;;21.80;80.90;;;;;;5030600;28;20619;-49
2021/06/11 01:02:03;;;;;;;13.30;12.10;;;21.80;81.20;;;;;;5030388;28;20619;-49
2021/06/11 01:04:30;;;;;;;11.93;11.03;;;21.80;81.30;;;;;;5030248;28;21066;-49
2021/06/11 01:06:56;;;;;;;13.40;12.03;;;21.80;81.70;;;;;;5030647;28;20743;-49
2021/06/11 01:09:23;;;;;;;12.50;11.47;;;21.70;81.80;;;;;;5030815;28;21187;-49
2021/06/11 01:11:51;;;;;;;12.93;11.67;;;21.70;81.80;;;;;;5030807;28;20702;-49
2021/06/11 01:14:18;;;;;;;13.17;12.17;;;21.60;81.90;;;;;;5030821;28;20655;-49
2021/06/11 01:16:45;;;;;;;13.20;12.10;;;21.50;82.10;;;;;;5030629;28;20701;-49
2021/06/11 01:19:12;;;;;;;12.13;11.33;;;21.50;82.80;;;;;;5030511;28;20665;-49
2021/06/11 01:21:44;;;;;;;13.10;12.10;;;21.40;83.00;;;;;;5030719;28;20758;-48
2021/06/11 01:24:14;;;;;;;12.93;11.93;;;21.30;83.30;;;;;;5030874;28;20658;-49
2021/06/11 01:26:43;;;;;;;14.00;12.87;;;21.30;83.80;;;;;;5030488;28;20623;-49
2021/06/11 01:29:12;;;;;;;13.73;12.73;;;21.30;84.10;;;;;;5030420;28;20696;-49
2021/06/11 01:31:40;;;;;;;12.87;11.87;;;21.40;84.50;;;;;;5029862;28;20675;-49
2021/06/11 01:34:09;;;;;;;11.43;10.60;;;21.30;84.80;;;;;;5030268;28;20663;-48
2021/06/11 01:36:37;;;;;;;13.23;12.33;;;21.30;84.90;;;;;;5030137;28;20631;-47
2021/06/11 01:39:05;;;;;;;13.67;12.57;;;21.30;84.90;;;;;;5030261;28;20627;-47
2021/06/11 01:41:32;;;;;;;13.80;12.70;;;21.30;85.10;;;;;;5030074;28;20886;-47
2021/06/11 01:44:00;;;;;;;12.67;11.77;;;21.40;85.70;;;;;;5029974;28;21009;-47
2021/06/11 01:46:28;;;;;;;12.30;11.50;;;21.40;85.60;;;;;;5030016;28;21253;-47
2021/06/11 01:48:55;;;;;;;12.27;11.27;;;21.30;85.80;;;;;;5030394;28;20702;-47
2021/06/11 01:51:21;;;;;;;14.87;13.40;;;21.30;86.80;;;;;;5030271;28;20654;-47
2021/06/11 01:53:48;;;;;;;14.93;13.73;;;21.30;86.50;;;;;;5030472;28;20619;-47
2021/06/11 01:56:16;;;;;;;13.77;12.67;;;21.30;87.00;;;;;;5030397;28;20627;-47
2021/06/11 01:58:43;;;;;;;13.07;11.97;;;21.20;87.40;;;;;;5030044;28;20623;-47
2021/06/11 02:01:11;;;;;;;13.37;12.27;;;21.20;87.50;;;;;;5029839;28;21073;-48
2021/06/11 02:03:38;;;;;;;14.07;13.07;;;21.20;87.50;;;;;;5030083;28;20635;-48
2021/06/11 02:06:05;;;;;;;17.93;13.57;;;21.20;87.60;;;;;;5029968;28;21042;-48
2021/06/11 02:08:32;;;;;;;13.63;12.30;;;21.20;87.60;;;;;;5030044;28;20635;-48
2021/06/11 02:10:59;;;;;;;13.80;12.83;;;21.20;87.90;;;;;;5029994;28;20623;-48
2021/06/11 02:13:27;;;;;;;13.67;12.67;;;21.10;88.00;;;;;;5033491;28;20705;-48
2021/06/11 02:15:54;;;;;;;13.33;12.43;;;21.10;88.10;;;;;;5033045;28;20673;-48
2021/06/11 02:18:23;;;;;;;13.53;12.40;;;21.10;89.10;;;;;;5033842;28;20646;-49
2021/06/11 02:20:51;;;;;;;13.97;12.80;;;21.10;88.70;;;;;;5033507;28;20773;-47
2021/06/11 02:23:18;;;;;;;13.20;12.20;;;21.10;88.80;;;;;;5034153;28;20670;-49
2021/06/11 02:25:45;;;;;;;14.27;13.07;;;21.00;88.80;;;;;;5033678;28;20681;-48
2021/06/11 02:28:14;;;;;;;13.80;12.60;;;21.00;89.00;;;;;;5033728;28;20630;-48
2021/06/11 02:30:41;;;;;;;14.17;12.87;;;20.80;89.00;;;;;;5033825;28;20688;-48
2021/06/11 02:33:08;;;;;;;13.70;12.70;;;20.70;89.70;;;;;;5032971;28;20654;-48
2021/06/11 02:35:36;;;;;;;13.60;12.60;;;20.60;90.10;;;;;;5033774;28;20712;-47
2021/06/11 02:38:03;;;;;;;13.47;12.40;;;20.50;90.30;;;;;;5033286;28;20691;-48
2021/06/11 02:40:29;;;;;;;15.60;14.40;;;20.40;90.50;;;;;;5033235;28;20680;-49
2021/06/11 02:42:59;;;;;;;15.17;14.07;;;20.40;90.70;;;;;;5032934;28;21195;-47
2021/06/11 02:45:27;;;;;;;13.60;12.50;;;20.50;90.90;;;;;;5033603;28;21045;-47
2021/06/11 02:47:57;;;;;;;15.40;14.10;;;20.50;90.90;;;;;;5032948;28;20635;-48
2021/06/11 02:50:26;;;;;;;14.13;13.13;;;20.50;90.90;;;;;;5033379;28;20995;-48
2021/06/11 02:52:56;;;;;;;16.20;14.67;;;20.50;90.90;;;;;;5033007;28;20666;-48
2021/06/11 02:55:23;;;;;;;13.50;12.50;;;20.50;90.90;;;;;;5032282;28;20658;-49
2021/06/11 02:57:51;;;;;;;14.17;12.90;;;20.40;90.90;;;;;;5033420;28;20994;-49
2021/06/11 03:00:19;;;;;;;16.00;14.60;;;20.30;91.00;;;;;;5032956;28;20669;-48
2021/06/11 03:02:47;;;;;;;15.07;13.97;;;20.30;91.30;;;;;;5033087;28;20623;-49
2021/06/11 03:05:15;;;;;;;15.83;14.33;;;20.30;91.30;;;;;;5032862;28;20662;-48
2021/06/11 03:07:42;;;;;;;17.20;15.70;;;20.30;91.40;;;;;;5032718;28;20753;-48
2021/06/11 03:10:12;;;;;;;15.43;13.97;;;20.30;91.40;;;;;;5033132;28;21195;-48
2021/06/11 03:12:38;;;;;;;16.40;15.10;;;20.30;91.40;;;;;;5032313;28;20712;-47
2021/06/11 03:15:06;;;;;;;14.07;13.00;;;20.20;91.50;;;;;;5032886;28;20658;-49
2021/06/11 03:17:43;;;;;;;18.23;14.33;;;20.20;91.50;;;;;;5032435;28;20630;-48
2021/06/11 03:20:12;;;;;;;15.93;14.63;;;20.20;91.40;;;;;;5032168;28;21156;-49
2021/06/11 03:22:42;;;;;;;16.37;15.00;;;20.20;91.40;;;;;;5032091;28;20688;-49
2021/06/11 03:25:13;;;;;;;16.90;15.50;;;20.10;91.40;;;;;;5032725;28;20697;-48
2021/06/11 03:27:42;;;;;;;16.33;14.70;;;20.10;91.50;;;;;;5033094;28;20663;-49
2021/06/11 03:30:09;;;;;;;15.13;14.03;;;20.10;91.60;;;;;;5029602;28;20628;-48
2021/06/11 03:32:38;;;;;;;14.83;13.53;;;20.00;91.70;;;;;;5012567;28;20658;-48
2021/06/11 03:35:07;;;;;;;15.57;14.27;;;20.00;91.80;;;;;;5012708;28;21248;-49
2021/06/11 03:37:34;;;;;;;16.40;15.10;;;20.00;91.80;;;;;;5012807;28;20982;-48
2021/06/11 03:40:03;;;;;;;16.27;14.87;;;20.00;91.70;;;;;;5030748;28;20635;-49
2021/06/11 03:42:31;;;;;;;16.23;14.67;;;19.90;91.90;;;;;;5032145;28;21068;-49
2021/06/11 03:44:59;;;;;;;15.83;14.27;;;19.90;92.00;;;;;;5011979;28;20679;-49
2021/06/11 03:47:27;;;;;;;16.50;15.20;;;20.00;92.00;;;;;;5017020;28;20619;-48
2021/06/11 03:49:55;;;;;;;14.73;13.67;;;20.00;92.00;;;;;;5032245;28;20623;-47
2021/06/11 03:52:23;;;;;;;13.43;12.50;;;20.00;91.90;;;;;;5032592;28;21049;-48
2021/06/11 03:54:50;;;;;;;15.23;13.93;;;19.90;92.10;;;;;;5032416;28;20666;-48
2021/06/11 03:57:16;;;;;;;16.37;15.07;;;19.90;92.20;;;;;;5032285;28;20708;-47
2021/06/11 03:59:45;;;;;;;15.70;14.50;;;19.90;92.30;;;;;;5032821;28;20689;-47
2021/06/11 04:02:11;;;;;;;17.17;15.60;;;20.00;92.40;;;;;;5032371;28;20627;-47
2021/06/11 04:04:38;;;;;;;16.30;14.70;;;20.00;92.30;;;;;;5032111;28;20736;-49
2021/06/11 04:07:08;;;;;;;16.27;14.87;;;20.00;92.20;;;;;;5013208;28;20660;-49
2021/06/11 04:09:41;;;;;;;14.83;13.63;;;20.10;92.30;;;;;;5012685;28;20639;-49
2021/06/11 04:12:09;;;;;;;17.40;16.00;;;20.10;92.30;;;;;;5012140;28;20667;-49
2021/06/11 04:14:38;;;;;;;17.57;16.07;;;20.10;92.20;;;;;;5028831;28;21281;-48
2021/06/11 04:17:10;;;;;;;16.77;15.40;;;20.10;92.20;;;;;;5021083;28;20631;-47
2021/06/11 04:19:39;;;;;;;16.30;15.00;;;20.20;92.00;;;;;;5012109;28;20623;-48
2021/06/11 04:22:06;;;;;;;18.53;17.13;;;20.20;92.10;;;;;;5020495;28;20628;-48
2021/06/11 04:24:34;;;;;;;18.30;16.83;;;20.30;91.90;;;;;;5031747;28;20711;-49
2021/06/11 04:27:01;;;;;;;18.80;17.43;;;20.40;91.60;;;;;;5031355;28;20677;-49
2021/06/11 04:29:31;;;;;;;18.47;16.97;;;20.40;91.50;;;;;;5031221;28;20631;-48
2021/06/11 04:31:57;;;;;;;19.20;17.70;;;20.40;91.50;;;;;;5031442;28;20871;-49
2021/06/11 04:34:26;;;;;;;19.87;18.07;;;20.40;91.40;;;;;;5030942;28;20643;-49
2021/06/11 04:36:53;;;;;;;19.00;17.50;;;20.40;91.30;;;;;;5027512;28;20740;-49
2021/06/11 04:39:20;;;;;;;20.00;18.20;;;20.50;91.30;;;;;;5013839;28;21153;-49
2021/06/11 04:41:46;;;;;;;18.80;17.37;;;20.50;91.20;;;;;;5011693;28;20686;-49
2021/06/11 04:44:13;;;;;;;19.37;17.80;;;20.50;91.10;;;;;;5024558;28;20748;-49
2021/06/11 04:46:40;;;;;;;19.10;17.60;;;20.60;90.90;;;;;;5029650;28;21249;-48
2021/06/11 04:49:07;;;;;;;19.57;17.97;;;20.60;90.80;;;;;;5030867;28;20631;-48
2021/06/11 04:51:35;;;;;;;20.30;18.67;;;20.80;90.50;;;;;;5030547;28;21227;-48
2021/06/11 04:54:02;;;;;;;18.63;17.13;;;21.00;90.30;;;;;;5028679;28;21167;-48
2021/06/11 04:56:29;;;;;;;19.30;17.80;;;21.00;90.10;;;;;;5010842;28;20680;-49
2021/06/11 04:58:55;;;;;;;18.73;17.23;;;21.00;90.00;;;;;;5011269;28;20632;-48
2021/06/11 05:01:22;;;;;;;20.03;18.40;;;21.00;89.80;;;;;;5022670;28;20689;-48
2021/06/11 05:03:49;;;;;;;20.00;18.30;;;21.00;90.00;;;;;;5030307;28;20693;-48
2021/06/11 05:06:16;;;;;;;21.83;20.13;;;20.90;90.00;;;;;;5030442;28;20635;-49
2021/06/11 05:08:45;;;;;;;22.80;20.90;;;20.80;90.20;;;;;;5027898;28;21285;-49
2021/06/11 05:11:12;;;;;;;20.90;19.30;;;20.60;90.60;;;;;;5030421;28;20631;-49
2021/06/11 05:13:38;;;;;;;21.73;20.03;;;20.40;91.10;;;;;;5028920;28;20713;-48
2021/06/11 05:16:05;;;;;;;21.43;19.73;;;20.30;91.50;;;;;;5028247;28;21048;-49
2021/06/11 05:18:32;;;;;;;19.93;18.23;;;20.20;91.70;;;;;;5025294;28;22035;-48
2021/06/11 05:20:59;;;;;;;20.03;18.13;;;20.10;91.50;;;;;;5029636;28;21236;-48
2021/06/11 05:23:26;;;;;;;20.60;18.83;;;20.10;92.00;;;;;;5027962;28;20627;-51
2021/06/11 05:25:54;;;;;;;21.10;19.30;;;20.20;92.20;;;;;;5028576;28;21068;-51
2021/06/11 05:28:22;;;;;;;21.13;19.43;;;20.20;92.10;;;;;;5020750;28;20684;-51
2021/06/11 05:30:49;;;;;;;20.30;18.80;;;20.30;92.10;;;;;;5029046;28;20733;-51
2021/06/11 05:33:15;;;;;;;18.70;17.10;;;20.40;91.90;;;;;;5029329;28;20659;-51
2021/06/11 05:35:42;;;;;;;19.93;18.10;;;20.50;91.90;;;;;;5029234;28;21366;-51
2021/06/11 05:38:10;;;;;;;21.30;19.60;;;20.60;91.80;;;;;;5028659;28;20619;-51
2021/06/11 05:40:38;;;;;;;21.20;19.30;;;20.70;91.60;;;;;;5010326;28;20636;-51
2021/06/11 05:43:07;;;;;;;19.73;18.13;;;20.70;91.20;;;;;;5009897;28;20742;-51
2021/06/11 05:45:33;;;;;;;19.00;17.37;;;20.80;91.30;;;;;;5011016;28;20648;-51
2021/06/11 05:48:01;;;;;;;18.60;16.80;;;20.80;91.20;;;;;;5033147;28;21208;-51
2021/06/11 05:50:28;;;;;;;19.97;18.37;;;20.90;91.20;;;;;;5031736;28;20623;-51
2021/06/11 05:52:54;;;;;;;19.50;17.77;;;20.90;91.00;;;;;;5034138;28;20701;-51
2021/06/11 05:55:21;;;;;;;17.43;16.10;;;21.00;90.80;;;;;;5034722;28;20662;-52
2021/06/11 05:57:48;;;;;;;16.20;14.80;;;21.00;90.80;;;;;;5033598;28;20635;-51
2021/06/11 06:00:17;;;;;;;16.07;14.87;;;21.10;90.80;;;;;;5034065;28;20635;-52
2021/06/11 06:02:44;;;;;;;16.67;15.27;;;21.20;90.70;;;;;;5033556;28;20649;-51
2021/06/11 06:05:12;;;;;;;16.10;14.90;;;21.20;90.50;;;;;;5032263;28;20713;-51
2021/06/11 06:07:39;;;;;;;16.20;14.80;;;21.20;90.50;;;;;;5033753;28;21037;-52
2021/06/11 06:10:06;;;;;;;17.60;16.13;;;21.30;90.50;;;;;;5034261;28;20631;-51
2021/06/11 06:12:33;;;;;;;18.70;17.10;;;21.40;90.50;;;;;;5033667;28;20997;-51
2021/06/11 06:15:00;;;;;;;17.53;16.00;;;21.40;90.20;;;;;;5033699;28;20988;-52
2021/06/11 06:17:31;;;;;;;15.93;14.63;;;21.50;90.00;;;;;;5033126;28;20631;-51
2021/06/11 06:19:57;;;;;;;15.27;14.17;;;21.60;90.00;;;;;;5033828;28;20685;-52
2021/06/11 06:22:25;;;;;;;16.47;15.00;;;21.60;89.40;;;;;;5033429;28;20678;-51
2021/06/11 06:24:52;;;;;;;16.60;14.83;;;21.60;89.50;;;;;;5033346;28;20654;-51
2021/06/11 06:27:19;;;;;;;17.00;15.47;;;21.70;89.70;;;;;;5033469;28;20684;-51
2021/06/11 06:29:45;;;;;;;16.30;15.10;;;21.70;89.60;;;;;;5033632;28;20634;-51
2021/06/11 06:32:13;;;;;;;17.47;16.00;;;21.80;89.60;;;;;;5033526;28;20655;-52
2021/06/11 06:34:41;;;;;;;16.63;14.60;;;21.90;89.70;;;;;;5033532;28;20710;-51
2021/06/11 06:37:10;;;;;;;15.90;14.47;;;21.90;89.50;;;;;;5033818;28;20631;-52
2021/06/11 06:39:37;;;;;;;14.70;13.50;;;22.00;89.40;;;;;;5033760;28;20627;-52
2021/06/11 06:42:05;;;;;;;17.03;15.23;;;22.00;88.80;;;;;;5034002;28;20684;-52
2021/06/11 06:44:31;;;;;;;15.93;14.70;;;22.10;88.80;;;;;;5031725;28;20666;-51
2021/06/11 06:46:58;;;;;;;15.30;14.00;;;22.10;88.80;;;;;;5032179;28;20635;-52
2021/06/11 06:49:44;;;;;;;14.67;13.50;;;22.20;89.00;;;;;;5034165;28;20684;-59
2021/06/11 06:52:11;;;;;;;15.13;13.93;;;22.30;89.00;;;;;;5033600;28;20637;-53
2021/06/11 06:54:40;;;;;;;15.60;14.40;;;22.30;88.30;;;;;;5033051;28;20658;-52
2021/06/11 06:57:07;;;;;;;16.47;14.93;;;22.30;87.40;;;;;;5032922;28;20623;-53
2021/06/11 06:59:34;;;;;;;17.53;16.13;;;22.30;87.40;;;;;;5033413;28;21337;-51
2021/06/11 07:02:01;;;;;;;16.90;15.50;;;22.40;87.80;;;;;;5034823;28;20684;-51
2021/06/11 07:04:28;;;;;;;16.87;15.53;;;22.40;87.60;;;;;;5035186;28;20685;-53
2021/06/11 07:06:56;;;;;;;16.00;14.70;;;22.40;87.60;;;;;;5033010;28;20797;-51
2021/06/11 07:09:23;;;;;;;15.50;14.30;;;22.50;87.70;;;;;;5032806;28;20630;-53
2021/06/11 07:11:51;;;;;;;18.73;15.87;;;22.50;87.70;;;;;;5032785;28;21214;-50
2021/06/11 07:14:18;;;;;;;15.87;14.33;;;22.50;87.40;;;;;;5032999;28;21223;-51
2021/06/11 07:16:45;;;;;;;15.50;14.20;;;22.60;87.70;;;;;;5032873;28;20630;-51
2021/06/11 07:19:12;;;;;;;14.97;13.70;;;22.60;86.70;;;;;;5032182;28;21187;-52
2021/06/11 07:21:39;;;;;;;15.30;13.90;;;22.60;86.80;;;;;;5032678;28;21180;-52
2021/06/11 07:24:08;;;;;;;16.23;14.67;;;22.70;87.10;;;;;;5032334;28;20651;-52
2021/06/11 07:26:36;;;;;;;15.23;14.00;;;22.80;86.30;;;;;;5032543;28;20784;-52
2021/06/11 07:29:03;;;;;;;15.93;14.13;;;22.90;85.80;;;;;;5032596;28;20685;-51
2021/06/11 07:31:30;;;;;;;15.10;13.50;;;23.10;85.70;;;;;;5032824;28;20688;-51
2021/06/11 07:33:57;;;;;;;15.97;14.67;;;23.30;85.30;;;;;;5032219;28;20659;-51
2021/06/11 07:36:25;;;;;;;16.20;13.73;;;23.40;84.50;;;;;;5032025;28;20631;-51
2021/06/11 07:38:54;;;;;;;14.57;13.27;;;23.60;83.80;;;;;;5031754;28;20687;-52
2021/06/11 07:41:24;;;;;;;13.00;12.13;;;23.80;83.10;;;;;;5030822;28;20990;-51
2021/06/11 07:43:53;;;;;;;15.17;14.07;;;24.10;82.60;;;;;;5031961;28;20649;-50
2021/06/11 07:46:20;;;;;;;13.83;12.27;;;24.20;81.20;;;;;;5031849;28;20665;-53
2021/06/11 07:48:48;;;;;;;17.00;13.87;;;24.40;81.10;;;;;;5032287;28;20635;-52
2021/06/11 07:51:15;;;;;;;13.67;12.20;;;24.60;80.40;;;;;;5032253;28;20673;-53
2021/06/11 07:53:42;;;;;;;15.47;14.17;;;24.80;79.00;;;;;;5031862;28;21078;-51
2021/06/11 07:56:09;;;;;;;15.10;13.87;;;25.00;77.90;;;;;;5030353;28;21219;-52
2021/06/11 08:01:44;;;;;;;15.30;13.80;;;25.10;75.70;;;;;;5029307;28;20646;-52
2021/06/11 08:04:11;;;;;;;14.20;13.10;;;25.10;75.50;;;;;;5031795;28;20650;-51
2021/06/11 08:06:38;;;;;;;15.27;13.90;;;25.20;75.00;;;;;;5031951;28;21194;-52
2021/06/11 08:09:05;;;;;;;14.70;13.43;;;25.10;74.60;;;;;;5031267;28;20672;-50
2021/06/11 08:11:32;;;;;;;16.80;15.40;;;25.20;74.90;;;;;;5031486;28;20983;-51
2021/06/11 08:14:00;;;;;;;13.90;12.90;;;25.40;74.50;;;;;;5031310;28;20675;-50
2021/06/11 08:16:27;;;;;;;14.93;13.63;;;25.60;73.80;;;;;;5031205;28;20712;-51
2021/06/11 08:18:54;;;;;;;14.00;13.03;;;25.80;72.70;;;;;;5031551;28;20692;-50
2021/06/11 08:21:21;;;;;;;15.43;12.57;;;25.90;72.20;;;;;;5031766;28;21274;-50
2021/06/11 08:23:47;;;;;;;15.87;14.67;;;26.10;71.10;;;;;;5031558;28;20615;-51
2021/06/11 08:26:14;;;;;;;14.37;13.17;;;26.20;70.00;;;;;;5030697;28;21033;-49
2021/06/11 08:28:41;;;;;;;14.10;13.10;;;26.40;69.50;;;;;;5031208;28;20623;-51
2021/06/11 08:31:09;;;;;;;13.93;12.73;;;26.50;68.40;;;;;;5031393;28;21191;-51
2021/06/11 08:33:48;;;;;;;13.87;12.83;;;26.60;67.20;;;;;;5030713;28;20647;-53
2021/06/11 08:36:15;;;;;;;14.43;13.33;;;26.50;67.30;;;;;;5031023;28;21191;-52
2021/06/11 08:38:41;;;;;;;13.37;12.37;;;26.50;67.50;;;;;;5031481;28;20626;-50
2021/06/11 08:41:10;;;;;;;14.20;13.10;;;26.30;67.90;;;;;;5030933;28;20631;-51
2021/06/11 08:43:37;;;;;;;13.13;12.23;;;26.30;68.60;;;;;;5031616;28;20630;-51
2021/06/11 08:46:04;;;;;;;14.77;13.53;;;26.20;68.10;;;;;;5045210;22;20717;-52
2021/06/11 08:48:32;;;;;;;13.07;11.97;;;26.10;67.00;;;;;;5031525;28;21023;-54
2021/06/11 08:50:59;;;;;;;13.73;12.53;;;26.00;67.60;;;;;;5031863;28;20673;-51
2021/06/11 08:53:26;;;;;;;13.80;12.70;;;25.90;68.10;;;;;;5031667;28;20647;-53
2021/06/11 08:55:53;;;;;;;14.50;13.50;;;25.80;68.90;;;;;;5031420;28;20655;-54
2021/06/11 08:58:19;;;;;;;15.67;14.47;;;25.70;68.60;;;;;;5031558;28;20648;-52
2021/06/11 09:00:47;;;;;;;16.00;14.87;;;25.70;68.50;;;;;;5031708;28;20684;-53
2021/06/11 09:03:15;;;;;;;13.50;12.50;;;25.70;68.80;;;;;;5031536;28;20638;-53
2021/06/11 09:05:44;;;;;;;14.17;12.90;;;25.70;69.40;;;;;;5031560;28;21222;-55
2021/06/11 09:08:12;;;;;;;14.67;13.67;;;25.70;69.60;;;;;;5028348;28;20631;-53
2021/06/11 09:10:39;;;;;;;13.47;12.47;;;25.70;70.00;;;;;;5029972;28;21008;-53
2021/06/11 09:13:06;;;;;;;15.10;13.80;;;25.70;69.20;;;;;;5031087;28;21054;-53
2021/06/11 09:15:33;;;;;;;15.10;14.00;;;25.70;68.80;;;;;;5029135;28;20667;-53
2021/06/11 09:18:00;;;;;;;12.83;11.87;;;25.70;67.00;;;;;;5030484;28;20684;-52
2021/06/11 09:20:31;;;;;;;12.53;11.63;;;25.80;67.90;;;;;;5030923;28;20661;-52
2021/06/11 09:23:00;;;;;;;11.70;10.90;;;26.00;66.00;;;;;;5030551;28;21270;-51
2021/06/11 09:25:29;;;;;;;10.83;9.90;;;26.30;64.90;;;;;;5030778;28;20658;-52
2021/06/11 09:27:56;;;;;;;11.90;11.10;;;26.40;63.30;;;;;;5031159;28;20634;-51
2021/06/11 09:30:25;;;;;;;12.17;11.27;;;26.70;62.20;;;;;;5030990;28;20631;-52
2021/06/11 09:32:56;;;;;;;11.23;10.43;;;27.00;60.40;;;;;;5030509;28;20677;-51
2021/06/11 09:35:32;;;;;;;11.47;10.67;;;27.30;58.90;;;;;;5028405;28;20724;-54
2021/06/11 09:38:19;;;;;;;14.70;13.50;;;27.60;60.40;;;;;;5030884;28;20682;-54
2021/06/11 09:40:48;;;;;;;13.53;12.53;;;27.70;61.10;;;;;;5031001;28;21042;-56
2021/06/11 09:43:15;;;;;;;14.00;13.10;;;27.80;61.10;;;;;;5031147;28;20599;-53
2021/06/11 09:45:42;;;;;;;12.47;11.57;;;27.70;60.10;;;;;;5029849;28;20650;-55
2021/06/11 09:48:20;;;;;;;14.63;13.40;;;27.60;59.50;;;;;;5030989;28;20661;-53
2021/06/11 09:50:50;;;;;;;13.50;12.60;;;27.50;59.50;;;;;;5031051;28;20978;-55
2021/06/11 09:53:22;;;;;;;14.20;13.00;;;27.30;58.90;;;;;;5028974;28;20663;-54
2021/06/11 09:55:51;;;;;;;16.40;15.00;;;27.00;58.80;;;;;;5030704;28;20708;-54
2021/06/11 09:58:19;;;;;;;14.53;13.40;;;26.90;59.50;;;;;;5030703;28;20972;-54
2021/06/11 10:00:49;;;;;;;14.33;13.13;;;26.80;59.60;;;;;;5030964;28;20649;-56
2021/06/11 10:03:18;;;;;;;12.83;11.97;;;26.70;58.40;;;;;;5031206;28;20618;-55
2021/06/11 10:05:46;;;;;;;13.10;11.77;;;26.60;58.60;;;;;;5028865;28;20685;-55
2021/06/11 10:08:13;;;;;;;11.13;10.33;;;26.60;58.40;;;;;;5030609;28;20661;-55
2021/06/11 10:10:41;;;;;;;14.27;13.27;;;26.60;58.50;;;;;;5030668;28;20635;-56
2021/06/11 10:13:11;;;;;;;11.60;10.80;;;26.60;57.80;;;;;;5030521;28;20631;-54
2021/06/11 10:15:39;;;;;;;12.77;11.87;;;26.50;58.20;;;;;;5017802;28;20678;-54
2021/06/11 10:18:07;;;;;;;12.77;11.60;;;26.50;58.60;;;;;;5011695;28;20628;-55
2021/06/11 10:20:34;;;;;;;13.40;12.40;;;26.50;57.50;;;;;;5010586;28;21042;-55
2021/06/11 10:23:01;;;;;;;13.27;12.30;;;26.50;57.20;;;;;;5026661;28;20630;-55
2021/06/11 10:25:29;;;;;;;12.97;11.93;;;26.50;57.60;;;;;;5030320;28;21064;-57
2021/06/11 10:27:57;;;;;;;13.30;11.17;;;26.50;57.60;;;;;;5029016;28;20618;-56
2021/06/11 10:30:25;;;;;;;12.53;11.60;;;26.50;57.40;;;;;;5030459;28;20642;-53
2021/06/11 10:32:52;;;;;;;12.57;11.47;;;26.60;57.70;;;;;;5031089;28;20630;-55
2021/06/11 10:35:36;;;;;;;12.70;11.57;;;26.60;57.80;;;;;;5033680;28;20713;-54
2021/06/11 10:38:03;;;;;;;11.50;10.57;;;26.60;57.00;;;;;;5033576;28;20630;-54
2021/06/11 10:40:34;;;;;;;11.30;10.30;;;26.70;56.80;;;;;;5032932;28;20638;-57
2021/06/11 10:43:22;;;;;;;9.70;9.03;;;26.70;55.50;;;;;;5034121;28;20700;-55
2021/06/11 10:45:50;;;;;;;10.23;9.43;;;26.80;55.20;;;;;;5033033;28;21242;-56
2021/06/11 10:48:18;;;;;;;8.63;7.93;;;26.80;54.70;;;;;;5033266;28;20634;-56
2021/06/11 10:50:45;;;;;;;7.93;7.23;;;26.80;51.40;;;;;;5032521;28;21014;-56
2021/06/11 10:53:15;;;;;;;7.53;6.83;;;26.80;51.70;;;;;;5032068;28;20642;-55
2021/06/11 10:55:50;;;;;;;8.83;7.87;;;26.70;50.90;;;;;;5034392;28;20658;-54
2021/06/11 10:58:22;;;;;;;8.77;7.90;;;26.70;51.00;;;;;;5033646;28;20963;-55
2021/06/11 11:00:49;;;;;;;8.90;8.30;;;26.70;51.40;;;;;;5033870;28;20635;-56
2021/06/11 11:03:30;;;;;;;7.67;7.07;;;26.80;51.70;;;;;;5033816;28;20634;-57
2021/06/11 11:05:57;;;;;;;8.87;7.97;;;26.80;51.70;;;;;;5033514;28;20708;-55
2021/06/11 11:08:52;;;;;;;8.20;7.60;;;26.90;51.80;;;;;;5031711;28;20634;-57
2021/06/11 11:11:41;;;;;;;7.33;6.83;;;27.00;51.50;;;;;;5032208;28;20626;-56
2021/06/11 11:14:39;;;;;;;11.17;6.30;;;27.00;50.70;;;;;;5033356;28;20665;-56
2021/06/11 11:17:09;;;;;;;6.50;6.10;;;27.20;50.40;;;;;;5017483;28;20741;-57
2021/06/11 11:19:53;;;;;;;3.90;3.60;;;27.30;50.00;;;;;;5033752;28;20626;-56
2021/06/11 11:22:25;;;;;;;4.37;4.00;;;27.50;45.60;;;;;;5032487;28;20649;-55
2021/06/11 11:24:52;;;;;;;4.70;4.40;;;27.50;45.40;;;;;;5033450;28;20650;-56
2021/06/11 11:27:22;;;;;;;5.00;4.63;;;27.60;45.90;;;;;;5033872;28;20635;-56
2021/06/11 11:29:51;;;;;;;5.23;4.83;;;27.60;45.80;;;;;;5032389;28;20725;-55
2021/06/11 11:32:18;;;;;;;5.40;4.90;;;27.60;46.70;;;;;;5033426;28;21194;-56
2021/06/11 11:34:45;;;;;;;4.30;3.90;;;27.70;47.00;;;;;;5033305;28;21021;-54
2021/06/11 11:37:13;;;;;;;5.23;4.87;;;27.90;46.80;;;;;;5032472;28;20631;-53
2021/06/11 11:39:42;;;;;;;5.63;5.23;;;28.10;47.20;;;;;;5032931;28;20627;-54
2021/06/11 11:42:11;;;;;;;4.83;4.50;;;28.20;46.60;;;;;;5033716;28;20634;-53
2021/06/11 11:44:42;;;;;;;3.60;3.30;;;28.10;46.70;;;;;;5033061;28;21288;-53
2021/06/11 11:47:10;;;;;;;3.93;3.37;;;28.10;45.60;;;;;;5033525;28;21199;-53
2021/06/11 11:49:37;;;;;;;3.90;3.60;;;28.10;44.50;;;;;;5033344;28;20630;-55
2021/06/11 11:52:04;;;;;;;4.00;3.67;;;28.10;44.00;;;;;;5032545;28;20623;-54
2021/06/11 11:54:32;;;;;;;4.10;3.63;;;28.10;44.30;;;;;;5032953;28;21231;-53
2021/06/11 11:57:00;;;;;;;4.57;4.17;;;28.20;44.40;;;;;;5032800;28;20685;-54
2021/06/11 11:59:27;;;;;;;4.40;4.00;;;28.20;44.90;;;;;;5032785;28;20978;-53
2021/06/11 12:01:54;;;;;;;3.57;3.37;;;28.30;44.90;;;;;;5031692;28;20641;-53
2021/06/11 12:04:23;;;;;;;4.00;3.60;;;28.30;44.40;;;;;;5033291;28;20627;-54
2021/06/11 12:06:50;;;;;;;4.63;4.33;;;28.30;44.30;;;;;;5033068;28;20689;-54
2021/06/11 12:09:17;;;;;;;3.87;3.67;;;28.20;44.30;;;;;;5030877;28;21140;-54
2021/06/11 12:11:43;;;;;;;3.97;3.67;;;28.20;44.00;;;;;;5032558;28;20631;-54
2021/06/11 12:14:10;;;;;;;4.10;3.77;;;28.10;43.80;;;;;;5033208;28;20713;-55
2021/06/11 12:16:38;;;;;;;3.50;3.30;;;28.10;44.30;;;;;;5032330;28;20971;-54
2021/06/11 12:19:05;;;;;;;4.13;3.83;;;28.00;44.40;;;;;;5032445;28;20663;-54
2021/06/11 12:21:34;;;;;;;4.53;3.60;;;28.00;44.60;;;;;;5031459;28;20675;-53
2021/06/11 12:24:01;;;;;;;5.10;4.70;;;28.10;44.70;;;;;;5032657;28;21199;-54
2021/06/11 12:26:27;;;;;;;6.67;4.27;;;28.10;44.80;;;;;;5031744;28;21033;-54
2021/06/11 12:28:56;;;;;;;4.40;4.10;;;28.10;45.00;;;;;;5032714;28;21171;-54
2021/06/11 12:31:23;;;;;;;4.73;4.33;;;28.20;44.80;;;;;;5031128;28;20631;-53
2021/06/11 12:33:50;;;;;;;8.40;4.17;;;28.20;44.80;;;;;;5030946;28;20658;-53
2021/06/11 12:36:17;;;;;;;4.57;4.27;;;28.20;45.00;;;;;;5031607;28;20654;-53
2021/06/11 12:38:45;;;;;;;4.70;4.30;;;28.30;45.30;;;;;;5031967;28;20639;-55